sensor_id;sensor_type;location;lat;lon;timestamp;temperature;humidity
14093;DHT22;7123;49.468;10.992;2022-08-01T00:00:05;24.60;99.90
14093;DHT22;7123;49.468;10.992;2022-08-01T00:02:36;24.50;99.90
14093;DHT22;7123;49.468;10.992;2022-08-01T00:05:05;24.60;99.90
14093;DHT22;7123;49.468;10.992;2022-08-01T00:07:36;24.60;99.90
14093;DHT22;7123;49.468;10.992;2022-08-01T00:10:04;24.70;99.90
14093;DHT22;7123;49.468;10.992;2022-08-01T00:12:31;24.80;99.90
14093;DHT22;7123;49.468;10.992;2022-08-01T00:14:58;24.80;99.90
14093;DHT22;7123;49.468;10.992;2022-08-01T00:17:25;24.90;99.90
14093;DHT22;7123;49.468;10.992;2022-08-01T00:19:51;25.00;99.90
14093;DHT22;7123;49.468;10.992;2022-08-01T00:22:18;25.00;99.90
14093;DHT22;7123;49.468;10.992;2022-08-01T00:24:45;25.00;99.90
14093;DHT22;7123;49.468;10.992;2022-08-01T00:27:12;25.10;99.90
14093;DHT22;7123;49.468;10.992;2022-08-01T00:29:38;25.10;99.90
14093;DHT22;7123;49.468;10.992;2022-08-01T00:32:25;25.00;99.90
14093;DHT22;7123;49.468;10.992;2022-08-01T00:34:52;24.90;99.90
14093;DHT22;7123;49.468;10.992;2022-08-01T00:37:18;24.70;99.90
14093;DHT22;7123;49.468;10.992;2022-08-01T00:39:45;24.60;99.90
14093;DHT22;7123;49.468;10.992;2022-08-01T00:42:12;24.60;99.90
14093;DHT22;7123;49.468;10.992;2022-08-01T00:44:40;24.50;99.90
14093;DHT22;7123;49.468;10.992;2022-08-01T00:47:07;24.50;99.90
14093;DHT22;7123;49.468;10.992;2022-08-01T00:49:34;24.40;99.90
14093;DHT22;7123;49.468;10.992;2022-08-01T00:52:03;24.30;99.90
14093;DHT22;7123;49.468;10.992;2022-08-01T00:54:31;24.30;99.90
14093;DHT22;7123;49.468;10.992;2022-08-01T00:56:58;24.30;99.90
14093;DHT22;7123;49.468;10.992;2022-08-01T00:59:25;24.30;99.90
14093;DHT22;7123;49.468;10.992;2022-08-01T01:01:52;24.30;99.90
14093;DHT22;7123;49.468;10.992;2022-08-01T01:04:20;24.20;99.90
14093;DHT22;7123;49.468;10.992;2022-08-01T01:07:09;24.10;99.90
14093;DHT22;7123;49.468;10.992;2022-08-01T01:09:49;23.90;99.90
14093;DHT22;7123;49.468;10.992;2022-08-01T01:12:35;23.70;99.90
14093;DHT22;7123;49.468;10.992;2022-08-01T01:17:53;23.30;99.90
14093;DHT22;7123;49.468;10.992;2022-08-01T01:20:25;23.10;99.90
14093;DHT22;7123;49.468;10.992;2022-08-01T01:25:46;22.90;99.90
14093;DHT22;7123;49.468;10.992;2022-08-01T01:28:29;22.80;99.90
14093;DHT22;7123;49.468;10.992;2022-08-01T01:31:00;22.60;99.90
14093;DHT22;7123;49.468;10.992;2022-08-01T01:33:28;22.50;99.90
14093;DHT22;7123;49.468;10.992;2022-08-01T01:36:08;22.40;99.90
14093;DHT22;7123;49.468;10.992;2022-08-01T01:38:42;22.40;99.90
14093;DHT22;7123;49.468;10.992;2022-08-01T01:41:11;22.30;99.90
14093;DHT22;7123;49.468;10.992;2022-08-01T01:43:39;22.20;99.90
14093;DHT22;7123;49.468;10.992;2022-08-01T01:46:08;22.10;99.90
14093;DHT22;7123;49.468;10.992;2022-08-01T01:48:36;22.10;99.90
14093;DHT22;7123;49.468;10.992;2022-08-01T01:51:04;22.00;99.90
14093;DHT22;7123;49.468;10.992;2022-08-01T01:53:33;22.00;99.90
14093;DHT22;7123;49.468;10.992;2022-08-01T01:56:02;21.90;99.90
14093;DHT22;7123;49.468;10.992;2022-08-01T01:58:33;21.90;99.90
14093;DHT22;7123;49.468;10.992;2022-08-01T02:01:02;21.90;99.90
14093;DHT22;7123;49.468;10.992;2022-08-01T02:03:30;21.80;99.90
14093;DHT22;7123;49.468;10.992;2022-08-01T02:05:58;21.80;99.90
14093;DHT22;7123;49.468;10.992;2022-08-01T02:08:27;21.90;99.90
14093;DHT22;7123;49.468;10.992;2022-08-01T02:10:57;21.80;99.90
14093;DHT22;7123;49.468;10.992;2022-08-01T02:14:01;21.90;99.90
14093;DHT22;7123;49.468;10.992;2022-08-01T02:16:35;21.90;99.90
14093;DHT22;7123;49.468;10.992;2022-08-01T02:19:03;21.90;99.90
14093;DHT22;7123;49.468;10.992;2022-08-01T02:21:35;21.90;99.90
14093;DHT22;7123;49.468;10.992;2022-08-01T02:24:13;21.90;99.90
14093;DHT22;7123;49.468;10.992;2022-08-01T02:26:44;21.90;99.90
14093;DHT22;7123;49.468;10.992;2022-08-01T02:29:17;21.90;99.90
14093;DHT22;7123;49.468;10.992;2022-08-01T02:31:47;21.90;99.90
14093;DHT22;7123;49.468;10.992;2022-08-01T02:34:17;21.90;99.90
14093;DHT22;7123;49.468;10.992;2022-08-01T02:36:46;21.80;99.90
14093;DHT22;7123;49.468;10.992;2022-08-01T02:39:16;21.90;99.90
14093;DHT22;7123;49.468;10.992;2022-08-01T02:41:47;21.80;99.90
14093;DHT22;7123;49.468;10.992;2022-08-01T02:44:23;21.80;99.90
14093;DHT22;7123;49.468;10.992;2022-08-01T02:46:57;21.80;99.90
14093;DHT22;7123;49.468;10.992;2022-08-01T02:49:25;21.80;99.90
14093;DHT22;7123;49.468;10.992;2022-08-01T02:51:54;21.80;99.90
14093;DHT22;7123;49.468;10.992;2022-08-01T02:54:22;21.80;99.90
14093;DHT22;7123;49.468;10.992;2022-08-01T02:56:51;21.80;99.90
14093;DHT22;7123;49.468;10.992;2022-08-01T02:59:21;21.80;99.90
14093;DHT22;7123;49.468;10.992;2022-08-01T03:01:54;21.80;99.90
14093;DHT22;7123;49.468;10.992;2022-08-01T03:04:23;21.80;99.90
14093;DHT22;7123;49.468;10.992;2022-08-01T03:06:52;21.80;99.90
14093;DHT22;7123;49.468;10.992;2022-08-01T03:09:19;21.80;99.90
14093;DHT22;7123;49.468;10.992;2022-08-01T03:11:48;21.80;99.90
14093;DHT22;7123;49.468;10.992;2022-08-01T03:14:16;21.80;99.90
14093;DHT22;7123;49.468;10.992;2022-08-01T03:16:45;21.70;99.90
14093;DHT22;7123;49.468;10.992;2022-08-01T03:19:14;21.70;99.90
14093;DHT22;7123;49.468;10.992;2022-08-01T03:21:43;21.70;99.90
14093;DHT22;7123;49.468;10.992;2022-08-01T03:24:11;21.60;99.90
14093;DHT22;7123;49.468;10.992;2022-08-01T03:26:40;21.60;99.90
14093;DHT22;7123;49.468;10.992;2022-08-01T03:29:15;21.50;99.90
14093;DHT22;7123;49.468;10.992;2022-08-01T03:31:45;21.40;99.90
14093;DHT22;7123;49.468;10.992;2022-08-01T03:34:12;21.40;99.90
14093;DHT22;7123;49.468;10.992;2022-08-01T03:36:48;21.50;99.90
14093;DHT22;7123;49.468;10.992;2022-08-01T03:39:17;21.50;99.90
14093;DHT22;7123;49.468;10.992;2022-08-01T03:41:51;21.50;99.90
14093;DHT22;7123;49.468;10.992;2022-08-01T03:44:25;21.50;99.90
14093;DHT22;7123;49.468;10.992;2022-08-01T03:47:00;21.50;99.90
14093;DHT22;7123;49.468;10.992;2022-08-01T03:49:34;21.50;99.90
14093;DHT22;7123;49.468;10.992;2022-08-01T03:52:04;21.50;99.90
14093;DHT22;7123;49.468;10.992;2022-08-01T03:54:36;21.40;99.90
14093;DHT22;7123;49.468;10.992;2022-08-01T03:57:04;21.40;99.90
14093;DHT22;7123;49.468;10.992;2022-08-01T03:59:31;21.40;99.90
14093;DHT22;7123;49.468;10.992;2022-08-01T04:02:00;21.40;99.90
14093;DHT22;7123;49.468;10.992;2022-08-01T04:04:29;21.30;99.90
14093;DHT22;7123;49.468;10.992;2022-08-01T04:06:56;21.30;99.90
14093;DHT22;7123;49.468;10.992;2022-08-01T04:09:22;21.30;99.90
14093;DHT22;7123;49.468;10.992;2022-08-01T04:11:49;21.30;99.90
14093;DHT22;7123;49.468;10.992;2022-08-01T04:14:16;21.30;99.90
14093;DHT22;7123;49.468;10.992;2022-08-01T04:16:43;21.30;99.90
14093;DHT22;7123;49.468;10.992;2022-08-01T04:19:11;21.30;99.90
14093;DHT22;7123;49.468;10.992;2022-08-01T04:21:38;21.40;99.90
14093;DHT22;7123;49.468;10.992;2022-08-01T04:24:16;21.40;99.90
14093;DHT22;7123;49.468;10.992;2022-08-01T04:26:45;21.50;99.90
14093;DHT22;7123;49.468;10.992;2022-08-01T04:29:15;21.50;99.90
14093;DHT22;7123;49.468;10.992;2022-08-01T04:31:45;21.50;99.90
14093;DHT22;7123;49.468;10.992;2022-08-01T04:34:15;21.40;99.90
14093;DHT22;7123;49.468;10.992;2022-08-01T04:36:44;21.30;99.90
14093;DHT22;7123;49.468;10.992;2022-08-01T04:39:12;21.30;99.90
14093;DHT22;7123;49.468;10.992;2022-08-01T04:41:39;21.30;99.90
14093;DHT22;7123;49.468;10.992;2022-08-01T04:44:07;21.40;99.90
14093;DHT22;7123;49.468;10.992;2022-08-01T04:46:34;21.50;99.90
14093;DHT22;7123;49.468;10.992;2022-08-01T04:49:07;21.50;99.90
14093;DHT22;7123;49.468;10.992;2022-08-01T04:51:35;21.50;99.90
14093;DHT22;7123;49.468;10.992;2022-08-01T04:54:02;21.50;99.90
14093;DHT22;7123;49.468;10.992;2022-08-01T04:56:29;21.50;99.90
14093;DHT22;7123;49.468;10.992;2022-08-01T04:58:55;21.40;99.90
14093;DHT22;7123;49.468;10.992;2022-08-01T05:01:48;21.40;99.90
14093;DHT22;7123;49.468;10.992;2022-08-01T05:04:15;21.40;99.90
14093;DHT22;7123;49.468;10.992;2022-08-01T05:06:42;21.50;99.90
14093;DHT22;7123;49.468;10.992;2022-08-01T05:09:08;21.50;99.90
14093;DHT22;7123;49.468;10.992;2022-08-01T05:11:35;21.50;99.90
14093;DHT22;7123;49.468;10.992;2022-08-01T05:14:02;21.50;99.90
14093;DHT22;7123;49.468;10.992;2022-08-01T05:16:28;21.50;99.90
14093;DHT22;7123;49.468;10.992;2022-08-01T05:18:55;21.50;99.90
14093;DHT22;7123;49.468;10.992;2022-08-01T05:21:22;21.60;99.90
14093;DHT22;7123;49.468;10.992;2022-08-01T05:23:48;21.60;99.90
14093;DHT22;7123;49.468;10.992;2022-08-01T05:26:15;21.50;99.90
14093;DHT22;7123;49.468;10.992;2022-08-01T05:28:42;21.50;99.90
14093;DHT22;7123;49.468;10.992;2022-08-01T05:31:09;21.40;99.90
14093;DHT22;7123;49.468;10.992;2022-08-01T05:33:36;21.50;99.90
14093;DHT22;7123;49.468;10.992;2022-08-01T05:36:02;21.50;99.90
14093;DHT22;7123;49.468;10.992;2022-08-01T05:38:29;21.50;99.90
14093;DHT22;7123;49.468;10.992;2022-08-01T05:40:56;21.50;99.90
14093;DHT22;7123;49.468;10.992;2022-08-01T05:43:23;21.60;99.90
14093;DHT22;7123;49.468;10.992;2022-08-01T05:45:54;21.60;99.90
14093;DHT22;7123;49.468;10.992;2022-08-01T05:48:21;21.60;99.90
14093;DHT22;7123;49.468;10.992;2022-08-01T05:50:48;21.60;99.90
14093;DHT22;7123;49.468;10.992;2022-08-01T05:53:14;21.60;99.90
14093;DHT22;7123;49.468;10.992;2022-08-01T05:55:41;21.50;99.90
14093;DHT22;7123;49.468;10.992;2022-08-01T05:58:08;21.50;99.90
14093;DHT22;7123;49.468;10.992;2022-08-01T06:00:38;21.50;99.90
14093;DHT22;7123;49.468;10.992;2022-08-01T06:03:05;21.50;99.90
14093;DHT22;7123;49.468;10.992;2022-08-01T06:05:32;21.50;99.90
14093;DHT22;7123;49.468;10.992;2022-08-01T06:07:58;21.50;99.90
14093;DHT22;7123;49.468;10.992;2022-08-01T06:10:25;21.60;99.90
14093;DHT22;7123;49.468;10.992;2022-08-01T06:12:52;21.60;99.90
14093;DHT22;7123;49.468;10.992;2022-08-01T06:15:19;21.80;99.90
14093;DHT22;7123;49.468;10.992;2022-08-01T06:17:45;21.80;99.90
14093;DHT22;7123;49.468;10.992;2022-08-01T06:20:12;21.80;99.90
14093;DHT22;7123;49.468;10.992;2022-08-01T06:22:39;21.80;99.90
14093;DHT22;7123;49.468;10.992;2022-08-01T06:25:06;21.80;99.90
14093;DHT22;7123;49.468;10.992;2022-08-01T06:27:36;21.90;99.90
14093;DHT22;7123;49.468;10.992;2022-08-01T06:30:04;21.80;99.90
14093;DHT22;7123;49.468;10.992;2022-08-01T06:32:31;21.80;99.90
14093;DHT22;7123;49.468;10.992;2022-08-01T06:34:58;21.80;99.90
14093;DHT22;7123;49.468;10.992;2022-08-01T06:37:31;21.90;99.90
14093;DHT22;7123;49.468;10.992;2022-08-01T06:40:05;21.90;99.90
14093;DHT22;7123;49.468;10.992;2022-08-01T06:42:33;22.00;99.90
14093;DHT22;7123;49.468;10.992;2022-08-01T06:45:03;22.00;99.90
14093;DHT22;7123;49.468;10.992;2022-08-01T06:47:30;22.00;99.90
14093;DHT22;7123;49.468;10.992;2022-08-01T06:49:57;22.00;99.90
14093;DHT22;7123;49.468;10.992;2022-08-01T06:52:24;22.10;99.90
14093;DHT22;7123;49.468;10.992;2022-08-01T06:54:51;22.20;99.90
14093;DHT22;7123;49.468;10.992;2022-08-01T06:57:18;22.20;99.90
14093;DHT22;7123;49.468;10.992;2022-08-01T06:59:45;22.20;99.90
14093;DHT22;7123;49.468;10.992;2022-08-01T07:02:20;22.20;99.90
14093;DHT22;7123;49.468;10.992;2022-08-01T07:04:47;22.20;99.90
14093;DHT22;7123;49.468;10.992;2022-08-01T07:07:14;22.30;99.90
14093;DHT22;7123;49.468;10.992;2022-08-01T07:09:40;22.30;99.90
14093;DHT22;7123;49.468;10.992;2022-08-01T07:12:08;22.40;99.90
14093;DHT22;7123;49.468;10.992;2022-08-01T07:14:35;22.40;99.90
14093;DHT22;7123;49.468;10.992;2022-08-01T07:17:02;22.40;99.90
14093;DHT22;7123;49.468;10.992;2022-08-01T07:19:29;22.40;99.90
14093;DHT22;7123;49.468;10.992;2022-08-01T07:21:55;22.50;99.90
14093;DHT22;7123;49.468;10.992;2022-08-01T07:24:23;22.40;99.90
14093;DHT22;7123;49.468;10.992;2022-08-01T07:26:52;22.50;99.90
14093;DHT22;7123;49.468;10.992;2022-08-01T07:29:24;22.50;99.90
14093;DHT22;7123;49.468;10.992;2022-08-01T07:31:55;22.60;99.90
14093;DHT22;7123;49.468;10.992;2022-08-01T07:34:22;22.70;99.90
14093;DHT22;7123;49.468;10.992;2022-08-01T07:36:50;22.70;99.90
14093;DHT22;7123;49.468;10.992;2022-08-01T07:39:17;22.60;99.90
14093;DHT22;7123;49.468;10.992;2022-08-01T07:41:43;22.60;99.90
14093;DHT22;7123;49.468;10.992;2022-08-01T07:44:30;22.60;99.90
14093;DHT22;7123;49.468;10.992;2022-08-01T07:46:57;22.60;99.90
14093;DHT22;7123;49.468;10.992;2022-08-01T07:49:24;22.60;99.90
14093;DHT22;7123;49.468;10.992;2022-08-01T07:51:51;22.70;99.90
14093;DHT22;7123;49.468;10.992;2022-08-01T07:54:37;22.80;99.90
14093;DHT22;7123;49.468;10.992;2022-08-01T07:57:05;22.80;99.90
14093;DHT22;7123;49.468;10.992;2022-08-01T07:59:31;23.00;99.90
14093;DHT22;7123;49.468;10.992;2022-08-01T08:01:59;23.00;99.90
14093;DHT22;7123;49.468;10.992;2022-08-01T08:04:26;23.00;99.90
14093;DHT22;7123;49.468;10.992;2022-08-01T08:06:53;23.00;99.90
14093;DHT22;7123;49.468;10.992;2022-08-01T08:09:20;23.00;99.90
14093;DHT22;7123;49.468;10.992;2022-08-01T08:11:47;23.00;99.90
14093;DHT22;7123;49.468;10.992;2022-08-01T08:14:17;23.00;99.90
14093;DHT22;7123;49.468;10.992;2022-08-01T08:16:44;23.10;99.90
14093;DHT22;7123;49.468;10.992;2022-08-01T08:19:12;23.10;99.90
14093;DHT22;7123;49.468;10.992;2022-08-01T08:21:39;23.20;99.90
14093;DHT22;7123;49.468;10.992;2022-08-01T08:24:08;23.20;99.90
14093;DHT22;7123;49.468;10.992;2022-08-01T08:26:55;23.20;99.90
14093;DHT22;7123;49.468;10.992;2022-08-01T08:29:22;23.30;99.90
14093;DHT22;7123;49.468;10.992;2022-08-01T08:31:49;23.30;99.90
14093;DHT22;7123;49.468;10.992;2022-08-01T08:34:19;23.40;99.90
14093;DHT22;7123;49.468;10.992;2022-08-01T08:36:46;23.50;99.90
14093;DHT22;7123;49.468;10.992;2022-08-01T08:39:15;23.50;99.90
14093;DHT22;7123;49.468;10.992;2022-08-01T08:41:46;23.50;99.90
14093;DHT22;7123;49.468;10.992;2022-08-01T08:44:16;23.40;99.90
14093;DHT22;7123;49.468;10.992;2022-08-01T08:46:45;23.40;99.90
14093;DHT22;7123;49.468;10.992;2022-08-01T08:49:17;23.40;99.90
14093;DHT22;7123;49.468;10.992;2022-08-01T08:51:48;23.40;99.90
14093;DHT22;7123;49.468;10.992;2022-08-01T08:54:15;23.40;99.90
14093;DHT22;7123;49.468;10.992;2022-08-01T08:56:44;23.40;99.90
14093;DHT22;7123;49.468;10.992;2022-08-01T08:59:12;23.40;99.90
14093;DHT22;7123;49.468;10.992;2022-08-01T09:01:41;23.60;99.90
14093;DHT22;7123;49.468;10.992;2022-08-01T09:04:09;23.70;99.90
14093;DHT22;7123;49.468;10.992;2022-08-01T09:06:36;23.80;99.90
14093;DHT22;7123;49.468;10.992;2022-08-01T09:09:03;23.80;99.90
14093;DHT22;7123;49.468;10.992;2022-08-01T09:11:31;23.80;99.90
14093;DHT22;7123;49.468;10.992;2022-08-01T09:14:13;23.70;99.90
14093;DHT22;7123;49.468;10.992;2022-08-01T09:16:44;23.80;99.90
14093;DHT22;7123;49.468;10.992;2022-08-01T09:19:17;23.70;99.90
14093;DHT22;7123;49.468;10.992;2022-08-01T09:22:06;23.80;99.90
14093;DHT22;7123;49.468;10.992;2022-08-01T09:24:35;23.80;99.90
14093;DHT22;7123;49.468;10.992;2022-08-01T09:27:16;23.80;99.90
14093;DHT22;7123;49.468;10.992;2022-08-01T09:29:46;23.80;99.90
14093;DHT22;7123;49.468;10.992;2022-08-01T09:32:30;23.80;99.90
14093;DHT22;7123;49.468;10.992;2022-08-01T09:35:27;23.80;99.90
14093;DHT22;7123;49.468;10.992;2022-08-01T09:38:17;23.90;99.90
14093;DHT22;7123;49.468;10.992;2022-08-01T09:40:49;24.00;99.90
14093;DHT22;7123;49.468;10.992;2022-08-01T09:43:17;24.00;99.90
14093;DHT22;7123;49.468;10.992;2022-08-01T09:45:45;24.00;99.90
14093;DHT22;7123;49.468;10.992;2022-08-01T09:48:18;24.00;99.90
14093;DHT22;7123;49.468;10.992;2022-08-01T09:50:50;24.20;99.90
14093;DHT22;7123;49.468;10.992;2022-08-01T09:53:18;24.20;99.90
14093;DHT22;7123;49.468;10.992;2022-08-01T09:56:11;24.30;99.90
14093;DHT22;7123;49.468;10.992;2022-08-01T09:58:55;24.20;99.90
14093;DHT22;7123;49.468;10.992;2022-08-01T10:01:42;24.20;99.90
14093;DHT22;7123;49.468;10.992;2022-08-01T10:04:15;24.20;99.90
14093;DHT22;7123;49.468;10.992;2022-08-01T10:06:46;24.40;99.90
14093;DHT22;7123;49.468;10.992;2022-08-01T10:09:27;24.50;99.90
14093;DHT22;7123;49.468;10.992;2022-08-01T10:12:07;24.60;99.90
14093;DHT22;7123;49.468;10.992;2022-08-01T10:14:42;24.60;99.90
14093;DHT22;7123;49.468;10.992;2022-08-01T10:17:15;24.60;99.90
14093;DHT22;7123;49.468;10.992;2022-08-01T10:19:44;24.70;99.90
14093;DHT22;7123;49.468;10.992;2022-08-01T10:22:13;24.70;99.90
14093;DHT22;7123;49.468;10.992;2022-08-01T10:24:46;24.60;99.90
14093;DHT22;7123;49.468;10.992;2022-08-01T10:27:15;24.70;99.90
14093;DHT22;7123;49.468;10.992;2022-08-01T10:29:54;24.60;99.90
14093;DHT22;7123;49.468;10.992;2022-08-01T10:32:35;24.60;99.90
14093;DHT22;7123;49.468;10.992;2022-08-01T10:35:06;24.70;99.90
14093;DHT22;7123;49.468;10.992;2022-08-01T10:37:41;24.80;99.90
14093;DHT22;7123;49.468;10.992;2022-08-01T10:40:18;24.90;99.90
14093;DHT22;7123;49.468;10.992;2022-08-01T10:42:57;24.90;99.90
14093;DHT22;7123;49.468;10.992;2022-08-01T10:45:24;25.00;99.90
14093;DHT22;7123;49.468;10.992;2022-08-01T10:50:44;25.10;99.90
14093;DHT22;7123;49.468;10.992;2022-08-01T10:53:20;25.20;99.90
14093;DHT22;7123;49.468;10.992;2022-08-01T10:58:36;25.30;99.90
14093;DHT22;7123;49.468;10.992;2022-08-01T11:01:16;25.40;99.90
14093;DHT22;7123;49.468;10.992;2022-08-01T11:09:26;25.50;99.90
14093;DHT22;7123;49.468;10.992;2022-08-01T11:17:32;25.50;99.90
14093;DHT22;7123;49.468;10.992;2022-08-01T11:20:36;25.50;99.90
14093;DHT22;7123;49.468;10.992;2022-08-01T11:28:27;25.70;99.90
14093;DHT22;7123;49.468;10.992;2022-08-01T11:41:39;25.70;99.90
14093;DHT22;7123;49.468;10.992;2022-08-01T11:44:21;25.80;99.90
14093;DHT22;7123;49.468;10.992;2022-08-01T11:49:46;25.70;99.90
14093;DHT22;7123;49.468;10.992;2022-08-01T11:52:26;25.70;99.90
14093;DHT22;7123;49.468;10.992;2022-08-01T11:55:06;25.80;99.90
14093;DHT22;7123;49.468;10.992;2022-08-01T11:57:37;25.90;99.90
14093;DHT22;7123;49.468;10.992;2022-08-01T12:00:11;26.00;99.90
14093;DHT22;7123;49.468;10.992;2022-08-01T12:02:42;26.00;99.90
14093;DHT22;7123;49.468;10.992;2022-08-01T12:05:16;26.10;99.90
14093;DHT22;7123;49.468;10.992;2022-08-01T12:07:51;26.10;99.90
14093;DHT22;7123;49.468;10.992;2022-08-01T12:10:20;26.10;99.90
14093;DHT22;7123;49.468;10.992;2022-08-01T12:15:21;26.10;99.90
14093;DHT22;7123;49.468;10.992;2022-08-01T12:17:55;26.10;99.90
14093;DHT22;7123;49.468;10.992;2022-08-01T12:20:29;26.20;99.90
14093;DHT22;7123;49.468;10.992;2022-08-01T12:23:01;26.20;99.90
14093;DHT22;7123;49.468;10.992;2022-08-01T12:25:29;26.20;99.90
14093;DHT22;7123;49.468;10.992;2022-08-01T12:28:00;26.10;99.90
14093;DHT22;7123;49.468;10.992;2022-08-01T12:30:29;26.10;99.90
14093;DHT22;7123;49.468;10.992;2022-08-01T12:32:57;26.10;99.90
14093;DHT22;7123;49.468;10.992;2022-08-01T12:35:26;26.20;99.90
14093;DHT22;7123;49.468;10.992;2022-08-01T12:38:05;26.30;99.90
14093;DHT22;7123;49.468;10.992;2022-08-01T12:40:35;26.30;99.90
14093;DHT22;7123;49.468;10.992;2022-08-01T12:43:08;26.50;99.90
14093;DHT22;7123;49.468;10.992;2022-08-01T12:45:45;26.50;99.90
14093;DHT22;7123;49.468;10.992;2022-08-01T12:48:22;26.60;99.90
14093;DHT22;7123;49.468;10.992;2022-08-01T12:50:49;26.60;99.90
14093;DHT22;7123;49.468;10.992;2022-08-01T12:53:17;26.60;99.90
14093;DHT22;7123;49.468;10.992;2022-08-01T12:55:51;26.70;99.90
14093;DHT22;7123;49.468;10.992;2022-08-01T12:58:33;26.70;99.90
14093;DHT22;7123;49.468;10.992;2022-08-01T13:01:06;26.50;99.90
14093;DHT22;7123;49.468;10.992;2022-08-01T13:03:33;26.60;99.90
14093;DHT22;7123;49.468;10.992;2022-08-01T13:06:00;26.60;99.90
14093;DHT22;7123;49.468;10.992;2022-08-01T13:08:33;26.40;99.90
14093;DHT22;7123;49.468;10.992;2022-08-01T13:11:02;26.30;99.90
14093;DHT22;7123;49.468;10.992;2022-08-01T13:13:42;26.20;99.90
14093;DHT22;7123;49.468;10.992;2022-08-01T13:16:10;26.20;99.90
14093;DHT22;7123;49.468;10.992;2022-08-01T13:18:53;26.10;99.90
14093;DHT22;7123;49.468;10.992;2022-08-01T13:29:15;26.30;99.90
14093;DHT22;7123;49.468;10.992;2022-08-01T13:31:43;26.30;99.90
14093;DHT22;7123;49.468;10.992;2022-08-01T13:34:10;26.40;99.90
14093;DHT22;7123;49.468;10.992;2022-08-01T13:36:38;26.50;99.90
14093;DHT22;7123;49.468;10.992;2022-08-01T13:39:09;26.50;99.90
14093;DHT22;7123;49.468;10.992;2022-08-01T13:41:55;26.50;99.90
14093;DHT22;7123;49.468;10.992;2022-08-01T13:44:22;26.50;99.90
14093;DHT22;7123;49.468;10.992;2022-08-01T13:46:48;26.60;99.90
14093;DHT22;7123;49.468;10.992;2022-08-01T13:49:17;26.70;99.90
14093;DHT22;7123;49.468;10.992;2022-08-01T13:51:44;26.80;99.90
14093;DHT22;7123;49.468;10.992;2022-08-01T13:54:12;26.80;99.90
14093;DHT22;7123;49.468;10.992;2022-08-01T13:56:39;26.90;99.90
14093;DHT22;7123;49.468;10.992;2022-08-01T13:59:06;27.10;99.90
14093;DHT22;7123;49.468;10.992;2022-08-01T14:01:33;27.20;99.90
14093;DHT22;7123;49.468;10.992;2022-08-01T14:04:01;27.30;99.90
14093;DHT22;7123;49.468;10.992;2022-08-01T14:06:29;27.30;99.90
14093;DHT22;7123;49.468;10.992;2022-08-01T14:08:56;27.20;99.90
14093;DHT22;7123;49.468;10.992;2022-08-01T14:11:22;27.20;99.90
14093;DHT22;7123;49.468;10.992;2022-08-01T14:13:49;27.20;99.90
14093;DHT22;7123;49.468;10.992;2022-08-01T14:16:17;27.30;99.90
14093;DHT22;7123;49.468;10.992;2022-08-01T14:18:43;27.40;99.90
14093;DHT22;7123;49.468;10.992;2022-08-01T14:21:11;27.40;99.90
14093;DHT22;7123;49.468;10.992;2022-08-01T14:23:38;27.40;99.90
14093;DHT22;7123;49.468;10.992;2022-08-01T14:26:04;27.50;99.90
14093;DHT22;7123;49.468;10.992;2022-08-01T14:28:38;27.60;99.90
14093;DHT22;7123;49.468;10.992;2022-08-01T14:31:05;27.70;99.90
14093;DHT22;7123;49.468;10.992;2022-08-01T14:33:32;27.80;99.90
14093;DHT22;7123;49.468;10.992;2022-08-01T14:36:00;27.80;99.90
14093;DHT22;7123;49.468;10.992;2022-08-01T14:38:47;27.90;99.90
14093;DHT22;7123;49.468;10.992;2022-08-01T14:41:14;27.90;99.90
14093;DHT22;7123;49.468;10.992;2022-08-01T14:43:41;27.90;99.90
14093;DHT22;7123;49.468;10.992;2022-08-01T14:46:08;27.80;99.90
14093;DHT22;7123;49.468;10.992;2022-08-01T14:48:36;27.70;99.90
14093;DHT22;7123;49.468;10.992;2022-08-01T14:51:03;27.70;99.90
14093;DHT22;7123;49.468;10.992;2022-08-01T14:53:31;27.60;99.90
14093;DHT22;7123;49.468;10.992;2022-08-01T14:56:04;27.70;99.90
14093;DHT22;7123;49.468;10.992;2022-08-01T14:58:32;27.70;99.90
14093;DHT22;7123;49.468;10.992;2022-08-01T15:00:59;27.70;99.90
14093;DHT22;7123;49.468;10.992;2022-08-01T15:03:26;27.80;99.90
14093;DHT22;7123;49.468;10.992;2022-08-01T15:05:53;27.90;99.90
14093;DHT22;7123;49.468;10.992;2022-08-01T15:08:20;27.90;99.90
14093;DHT22;7123;49.468;10.992;2022-08-01T15:10:47;27.80;99.90
14093;DHT22;7123;49.468;10.992;2022-08-01T15:13:14;27.80;99.90
14093;DHT22;7123;49.468;10.992;2022-08-01T15:15:40;27.70;99.90
14093;DHT22;7123;49.468;10.992;2022-08-01T15:18:07;27.90;99.90
14093;DHT22;7123;49.468;10.992;2022-08-01T15:20:34;28.10;99.90
14093;DHT22;7123;49.468;10.992;2022-08-01T15:23:01;28.30;99.90
14093;DHT22;7123;49.468;10.992;2022-08-01T15:25:27;28.60;99.90
14093;DHT22;7123;49.468;10.992;2022-08-01T15:28:08;28.80;99.90
14093;DHT22;7123;49.468;10.992;2022-08-01T15:30:35;28.80;99.90
14093;DHT22;7123;49.468;10.992;2022-08-01T15:33:02;28.50;99.90
14093;DHT22;7123;49.468;10.992;2022-08-01T15:35:28;28.50;99.90
14093;DHT22;7123;49.468;10.992;2022-08-01T15:37:55;28.50;99.90
14093;DHT22;7123;49.468;10.992;2022-08-01T15:40:22;28.80;99.90
14093;DHT22;7123;49.468;10.992;2022-08-01T15:42:49;29.20;99.90
14093;DHT22;7123;49.468;10.992;2022-08-01T15:45:16;29.60;99.90
14093;DHT22;7123;49.468;10.992;2022-08-01T15:48:05;29.30;99.90
14093;DHT22;7123;49.468;10.992;2022-08-01T15:50:32;28.90;99.90
14093;DHT22;7123;49.468;10.992;2022-08-01T15:52:59;28.70;99.90
14093;DHT22;7123;49.468;10.992;2022-08-01T15:55:26;28.40;99.90
14093;DHT22;7123;49.468;10.992;2022-08-01T15:57:53;28.50;99.90
14093;DHT22;7123;49.468;10.992;2022-08-01T16:00:20;28.70;99.90
14093;DHT22;7123;49.468;10.992;2022-08-01T16:02:47;28.80;99.90
14093;DHT22;7123;49.468;10.992;2022-08-01T16:05:14;28.80;99.90
14093;DHT22;7123;49.468;10.992;2022-08-01T16:07:46;28.80;99.90
14093;DHT22;7123;49.468;10.992;2022-08-01T16:10:27;28.60;99.90
14093;DHT22;7123;49.468;10.992;2022-08-01T16:12:54;28.40;99.90
14093;DHT22;7123;49.468;10.992;2022-08-01T16:15:21;28.20;99.90
14093;DHT22;7123;49.468;10.992;2022-08-01T16:17:47;28.00;99.90
14093;DHT22;7123;49.468;10.992;2022-08-01T16:20:14;27.80;99.90
14093;DHT22;7123;49.468;10.992;2022-08-01T16:22:41;27.70;99.90
14093;DHT22;7123;49.468;10.992;2022-08-01T16:25:10;27.70;99.90
14093;DHT22;7123;49.468;10.992;2022-08-01T16:27:39;27.70;99.90
14093;DHT22;7123;49.468;10.992;2022-08-01T16:30:06;27.60;99.90
14093;DHT22;7123;49.468;10.992;2022-08-01T16:32:33;27.50;99.90
14093;DHT22;7123;49.468;10.992;2022-08-01T16:35:14;27.50;99.90
14093;DHT22;7123;49.468;10.992;2022-08-01T16:37:41;27.50;99.90
14093;DHT22;7123;49.468;10.992;2022-08-01T16:40:09;27.50;99.90